Wetterdaten: Woche 27.04.20 - 03.05.20 (KW18)
Datum Zeit Temp. Aussen Temp. o. S. Temp +5cm Feuchte Auss Luftdruck Regen Sonnenschein Regendauer Solar Windben Empfang
27.04.2020 00:00 9,4 C 7,0 C 6,5 C 73 % 1010,4 hPa 0,0 l/m 0,00 h 0,00 h 0 W/m 0,0 km/h (0 Bft) 98,03 %
27.04.2020 01:00 8,3 C 6,5 C 5,8 C 77 % 1010,3 hPa 0,0 l/m 0,00 h 0,00 h 0 W/m 0,0 km/h (0 Bft) 97,15 %
27.04.2020 02:00 7,3 C 5,5 C 4,8 C 79 % 1010,0 hPa 0,0 l/m 0,00 h 0,00 h 0 W/m 0,0 km/h (0 Bft) 95,72 %
27.04.2020 03:00 6,5 C 5,0 C 4,3 C 82 % 1009,9 hPa 0,0 l/m 0,00 h 0,00 h 0 W/m 0,0 km/h (0 Bft) 94,82 %
27.04.2020 04:00 5,9 C 4,4 C 3,9 C 85 % 1009,5 hPa 0,0 l/m 0,00 h 0,00 h 0 W/m 0,0 km/h (0 Bft) 99,36 %
27.04.2020 05:00 5,3 C 4,0 C 3,4 C 87 % 1009,1 hPa 0,0 l/m 0,00 h 0,00 h 0 W/m 0,0 km/h (0 Bft) 98,39 %
27.04.2020 06:00 4,8 C 3,8 C 3,1 C 89 % 1009,2 hPa 0,0 l/m 0,00 h 0,00 h 11 W/m 0,0 km/h (0 Bft) 96,69 %
27.04.2020 07:00 5,0 C 5,5 C 4,4 C 92 % 1009,2 hPa 0,0 l/m 0,00 h 0,00 h 33 W/m 0,4 km/h (0 Bft) 95,95 %
27.04.2020 08:00 7,5 C 10,6 C 8,3 C 94 % 1009,1 hPa 0,0 l/m 0,43 h 0,00 h 167 W/m 2,6 km/h (1 Bft) 98,57 %
27.04.2020 09:00 12,6 C 18,1 C 20,2 C 78 % 1009,0 hPa 0,0 l/m 1,00 h 0,00 h 447 W/m 7,5 km/h (2 Bft) 95,81 %
27.04.2020 10:00 16,6 C 21,6 C 25,1 C 63 % 1008,9 hPa 0,0 l/m 1,00 h 0,00 h 606 W/m 11,4 km/h (2 Bft) 96,58 %
27.04.2020 11:00 19,6 C 24,9 C 21,7 C 53 % 1008,7 hPa 0,0 l/m 1,00 h 0,00 h 747 W/m 11,4 km/h (2 Bft) 97,30 %
27.04.2020 12:00 21,6 C 26,5 C 21,8 C 44 % 1008,3 hPa 0,0 l/m 1,00 h 0,00 h 779 W/m 10,3 km/h (2 Bft) 98,53 %
27.04.2020 13:00 22,4 C 26,5 C 26,7 C 42 % 1007,9 hPa 0,0 l/m 1,00 h 0,00 h 794 W/m 12,3 km/h (3 Bft) 97,65 %
27.04.2020 14:00 23,1 C 27,4 C 27,1 C 40 % 1007,6 hPa 0,0 l/m 1,00 h 0,00 h 850 W/m 13,7 km/h (3 Bft) 98,13 %
27.04.2020 15:00 23,1 C 26,4 C 22,8 C 40 % 1007,1 hPa 0,0 l/m 1,00 h 0,00 h 752 W/m 15,7 km/h (3 Bft) 97,58 %
27.04.2020 16:00 23,7 C 26,9 C 23,8 C 40 % 1006,7 hPa 0,0 l/m 1,00 h 0,00 h 654 W/m 15,3 km/h (3 Bft) 96,57 %
27.04.2020 17:00 24,3 C 26,5 C 24,5 C 39 % 1006,2 hPa 0,0 l/m 1,00 h 0,00 h 485 W/m 11,5 km/h (2 Bft) 99,16 %
27.04.2020 18:00 24,0 C 23,8 C 21,5 C 41 % 1005,9 hPa 0,0 l/m 0,83 h 0,00 h 267 W/m 6,0 km/h (2 Bft) 97,13 %
27.04.2020 19:00 22,3 C 20,7 C 20,0 C 45 % 1005,7 hPa 0,0 l/m 0,00 h 0,00 h 62 W/m 7,6 km/h (2 Bft) 96,65 %
27.04.2020 20:00 20,6 C 17,7 C 16,1 C 52 % 1005,8 hPa 0,0 l/m 0,00 h 0,00 h 20 W/m 0,2 km/h (0 Bft) 98,93 %
27.04.2020 21:00 17,6 C 14,2 C 13,0 C 61 % 1006,0 hPa 0,0 l/m 0,00 h 0,00 h 0 W/m 0,0 km/h (0 Bft) 96,38 %
27.04.2020 22:00 15,3 C 13,0 C 12,0 C 65 % 1006,2 hPa 0,0 l/m 0,00 h 0,00 h 0 W/m 0,5 km/h (0 Bft) 97,15 %
27.04.2020 23:00 14,0 C 12,1 C 10,8 C 65 % 1006,1 hPa 0,0 l/m 0,00 h 0,00 h 0 W/m 0,0 km/h (0 Bft) 96,51 %
28.04.2020 00:00 12,8 C 10,5 C 9,7 C 67 % 1005,8 hPa 0,0 l/m 0,00 h 0,00 h 0 W/m 0,0 km/h (0 Bft) 98,33 %
28.04.2020 01:00 11,6 C 9,7 C 8,9 C 72 % 1005,8 hPa 0,0 l/m 0,00 h 0,00 h 0 W/m 0,0 km/h (0 Bft) 97,15 %
28.04.2020 02:00 10,6 C 8,8 C 8,0 C 75 % 1005,3 hPa 0,0 l/m 0,00 h 0,00 h 0 W/m 0,0 km/h (0 Bft) 98,08 %
28.04.2020 03:00 9,8 C 8,9 C 7,8 C 79 % 1005,0 hPa 0,0 l/m 0,00 h 0,00 h 0 W/m 0,0 km/h (0 Bft) 97,39 %
28.04.2020 04:00 9,7 C 8,4 C 7,4 C 81 % 1004,7 hPa 0,0 l/m 0,00 h 0,00 h 0 W/m 0,1 km/h (0 Bft) 95,23 %
28.04.2020 05:00 9,1 C 7,7 C 6,7 C 81 % 1004,4 hPa 0,0 l/m 0,00 h 0,00 h 0 W/m 0,0 km/h (0 Bft) 97,07 %
28.04.2020 06:00 8,8 C 8,6 C 7,8 C 85 % 1004,3 hPa 0,0 l/m 0,00 h 0,00 h 21 W/m 0,2 km/h (0 Bft) 98,53 %
28.04.2020 07:00 10,0 C 11,4 C 10,5 C 87 % 1004,1 hPa 0,0 l/m 0,27 h 0,00 h 73 W/m 1,7 km/h (1 Bft) 96,80 %
28.04.2020 08:00 11,9 C 13,5 C 12,6 C 82 % 1004,1 hPa 0,0 l/m 0,03 h 0,00 h 136 W/m 1,1 km/h (1 Bft) 96,05 %
28.04.2020 09:00 14,3 C 17,9 C 18,2 C 75 % 1004,0 hPa 0,0 l/m 1,00 h 0,00 h 354 W/m 4,5 km/h (1 Bft) 98,78 %
28.04.2020 10:00 17,0 C 19,8 C 20,6 C 70 % 1003,8 hPa 0,0 l/m 1,00 h 0,00 h 420 W/m 8,8 km/h (2 Bft) 97,22 %
28.04.2020 11:00 18,3 C 18,8 C 18,6 C 68 % 1003,5 hPa 0,0 l/m 0,38 h 0,17 h 276 W/m 11,1 km/h (2 Bft) 98,99 %
28.04.2020 12:00 18,1 C 18,9 C 18,3 C 69 % 1003,2 hPa 0,0 l/m 0,00 h 0,03 h 235 W/m 5,1 km/h (1 Bft) 95,92 %
28.04.2020 13:00 19,5 C 22,8 C 21,6 C 68 % 1002,8 hPa 0,0 l/m 0,40 h 0,00 h 467 W/m 3,4 km/h (1 Bft) 98,22 %
28.04.2020 14:00 20,6 C 19,5 C 19,6 C 66 % 1002,5 hPa 0,0 l/m 0,10 h 0,27 h 135 W/m 6,3 km/h (2 Bft) 98,57 %
28.04.2020 15:00 16,6 C 13,1 C 13,2 C 85 % 1003,4 hPa 6,4 l/m 0,00 h 0,97 h 57 W/m 8,2 km/h (2 Bft) 97,08 %
28.04.2020 16:00 14,8 C 13,5 C 13,5 C 94 % 1003,4 hPa 1,2 l/m 0,00 h 0,80 h 131 W/m 1,1 km/h (0 Bft) 98,27 %
28.04.2020 17:00 14,7 C 13,4 C 13,2 C 96 % 1003,3 hPa 1,0 l/m 0,00 h 0,70 h 96 W/m 7,1 km/h (2 Bft) 96,94 %
28.04.2020 18:00 14,7 C 14,1 C 13,5 C 96 % 1003,3 hPa 0,0 l/m 0,13 h 0,07 h 130 W/m 4,7 km/h (1 Bft) 97,16 %
28.04.2020 19:00 14,7 C 13,5 C 13,0 C 95 % 1003,4 hPa 0,0 l/m 0,00 h 0,00 h 71 W/m 1,2 km/h (1 Bft) 99,07 %
28.04.2020 20:00 14,3 C 12,7 C 12,1 C 94 % 1003,5 hPa 0,0 l/m 0,00 h 0,00 h 19 W/m 0,2 km/h (0 Bft) 95,31 %
28.04.2020 21:00 13,4 C 11,7 C 11,1 C 93 % 1003,9 hPa 0,0 l/m 0,00 h 0,00 h 0 W/m 0,0 km/h (0 Bft) 97,36 %
28.04.2020 22:00 13,1 C 11,6 C 11,3 C 95 % 1004,2 hPa 4,2 l/m 0,00 h 0,67 h 0 W/m 2,6 km/h (1 Bft) 99,65 %
28.04.2020 23:00 12,2 C 10,6 C 10,5 C 95 % 1004,2 hPa 0,0 l/m 0,00 h 0,00 h 0 W/m 2,4 km/h (1 Bft) 93,67 %
29.04.2020 00:00 12,1 C 11,1 C 10,6 C 97 % 1004,4 hPa 0,0 l/m 0,00 h 0,00 h 0 W/m 2,1 km/h (1 Bft) 96,82 %
29.04.2020 01:00 12,1 C 11,1 C 10,6 C 97 % 1004,5 hPa 0,0 l/m 0,00 h 0,00 h 0 W/m 3,7 km/h (1 Bft) 99,07 %
29.04.2020 02:00 12,2 C 11,1 C 10,7 C 97 % 1004,5 hPa 0,0 l/m 0,00 h 0,00 h 0 W/m 5,2 km/h (1 Bft) 96,44 %
29.04.2020 03:00 11,7 C 11,0 C 10,4 C 97 % 1004,7 hPa 0,0 l/m 0,00 h 0,00 h 0 W/m 5,6 km/h (1 Bft) 99,07 %
29.04.2020 04:00 11,3 C 10,7 C 10,0 C 96 % 1004,7 hPa 0,0 l/m 0,00 h 0,00 h 0 W/m 5,5 km/h (1 Bft) 95,13 %
29.04.2020 05:00 11,3 C 10,6 C 10,0 C 94 % 1004,6 hPa 0,0 l/m 0,00 h 0,00 h 0 W/m 4,3 km/h (1 Bft) 97,51 %
29.04.2020 06:00 11,4 C 10,7 C 10,3 C 95 % 1004,8 hPa 0,0 l/m 0,00 h 0,00 h 18 W/m 7,4 km/h (2 Bft) 99,34 %
29.04.2020 07:00 11,5 C 11,3 C 10,8 C 94 % 1005,0 hPa 0,0 l/m 0,00 h 0,00 h 48 W/m 11,0 km/h (2 Bft) 95,70 %
29.04.2020 08:00 12,1 C 12,0 C 11,5 C 94 % 1005,1 hPa 0,0 l/m 0,00 h 0,07 h 74 W/m 12,8 km/h (3 Bft) 97,86 %
29.04.2020 09:00 12,1 C 10,9 C 10,5 C 94 % 1005,3 hPa 0,6 l/m 0,00 h 0,40 h 75 W/m 4,0 km/h (1 Bft) 97,88 %
29.04.2020 10:00 12,4 C 12,0 C 11,6 C 96 % 1005,5 hPa 0,0 l/m 0,00 h 0,00 h 97 W/m 3,3 km/h (1 Bft) 96,10 %
29.04.2020 11:00 12,9 C 13,5 C 12,4 C 92 % 1005,8 hPa 0,0 l/m 0,07 h 0,00 h 231 W/m 11,7 km/h (2 Bft) 97,06 %
29.04.2020 12:00 14,3 C 14,9 C 13,4 C 83 % 1005,8 hPa 0,0 l/m 0,03 h 0,00 h 226 W/m 14,1 km/h (3 Bft) 99,07 %
29.04.2020 13:00 14,8 C 15,6 C 15,1 C 81 % 1005,9 hPa 0,0 l/m 0,17 h 0,00 h 256 W/m 12,2 km/h (2 Bft) 95,56 %
29.04.2020 14:00 16,5 C 19,1 C 18,1 C 74 % 1006,1 hPa 0,0 l/m 0,47 h 0,00 h 468 W/m 14,5 km/h (3 Bft) 97,96 %
29.04.2020 15:00 17,6 C 19,7 C 17,6 C 66 % 1006,0 hPa 0,0 l/m 0,53 h 0,00 h 529 W/m 14,9 km/h (3 Bft) 98,31 %
29.04.2020 16:00 17,3 C 18,1 C 17,1 C 66 % 1005,7 hPa 0,0 l/m 0,63 h 0,00 h 317 W/m 11,4 km/h (2 Bft) 98,70 %
29.04.2020 17:00 18,0 C 19,3 C 18,2 C 64 % 1005,4 hPa 0,0 l/m 0,67 h 0,00 h 395 W/m 14,9 km/h (3 Bft) 95,23 %
29.04.2020 18:00 17,3 C 16,4 C 15,6 C 67 % 1005,0 hPa 0,0 l/m 0,20 h 0,00 h 114 W/m 14,2 km/h (3 Bft) 98,73 %
29.04.2020 19:00 16,6 C 15,7 C 15,1 C 69 % 1004,5 hPa 0,0 l/m 0,00 h 0,00 h 44 W/m 8,7 km/h (2 Bft) 99,02 %
29.04.2020 20:00 16,0 C 14,9 C 14,2 C 71 % 1004,2 hPa 0,0 l/m 0,00 h 0,00 h 6 W/m 6,8 km/h (2 Bft) 94,45 %
29.04.2020 21:00 15,6 C 14,4 C 13,8 C 73 % 1004,2 hPa 0,0 l/m 0,00 h 0,07 h 0 W/m 11,1 km/h (2 Bft) 99,15 %
29.04.2020 22:00 15,1 C 13,9 C 13,2 C 74 % 1003,8 hPa 0,0 l/m 0,00 h 0,13 h 0 W/m 12,7 km/h (3 Bft) 98,79 %
29.04.2020 23:00 14,7 C 13,8 C 12,9 C 73 % 1003,4 hPa 0,0 l/m 0,00 h 0,17 h 0 W/m 22,0 km/h (4 Bft) 95,87 %
30.04.2020 00:00 13,7 C 12,1 C 11,6 C 78 % 1003,4 hPa 0,0 l/m 0,00 h 0,40 h 0 W/m 19,8 km/h (3 Bft) 98,03 %
30.04.2020 01:00 11,9 C 9,5 C 9,4 C 86 % 1003,4 hPa 0,4 l/m 0,00 h 0,97 h 0 W/m 16,8 km/h (3 Bft) 97,93 %
30.04.2020 02:00 10,6 C 8,8 C 8,3 C 91 % 1003,0 hPa 0,2 l/m 0,00 h 0,43 h 0 W/m 14,6 km/h (3 Bft) 97,30 %
30.04.2020 03:00 10,2 C 8,9 C 8,3 C 93 % 1002,4 hPa 0,0 l/m 0,00 h 0,00 h 0 W/m 7,1 km/h (2 Bft) 98,44 %
30.04.2020 04:00 10,0 C 8,5 C 8,3 C 94 % 1001,7 hPa 0,0 l/m 0,00 h 0,47 h 0 W/m 4,4 km/h (1 Bft) 94,79 %
30.04.2020 05:00 9,9 C 8,3 C 8,2 C 95 % 1001,0 hPa 0,0 l/m 0,00 h 0,33 h 0 W/m 9,4 km/h (2 Bft) 97,29 %
30.04.2020 06:00 10,1 C 9,1 C 8,7 C 95 % 1000,7 hPa 0,0 l/m 0,00 h 0,07 h 9 W/m 11,1 km/h (2 Bft) 97,38 %
30.04.2020 07:00 10,5 C 10,1 C 9,2 C 94 % 1000,9 hPa 0,0 l/m 0,00 h 0,00 h 34 W/m 14,7 km/h (3 Bft) 99,78 %
30.04.2020 08:00 11,0 C 11,1 C 9,9 C 91 % 1001,1 hPa 0,0 l/m 0,20 h 0,17 h 112 W/m 18,7 km/h (3 Bft) 95,87 %
30.04.2020 09:00 11,6 C 11,6 C 10,9 C 87 % 1001,5 hPa 0,0 l/m 0,07 h 0,17 h 163 W/m 23,8 km/h (4 Bft) 97,17 %
30.04.2020 10:00 12,7 C 15,6 C 16,2 C 77 % 1002,2 hPa 0,0 l/m 0,60 h 0,00 h 458 W/m 16,6 km/h (3 Bft) 99,43 %
30.04.2020 11:00 14,5 C 16,4 C 15,8 C 66 % 1002,5 hPa 0,0 l/m 0,53 h 0,00 h 517 W/m 21,1 km/h (4 Bft) 96,58 %
30.04.2020 12:00 15,1 C 18,3 C 15,9 C 61 % 1002,3 hPa 0,0 l/m 0,77 h 0,00 h 841 W/m 25,2 km/h (4 Bft) 99,15 %
30.04.2020 13:00 16,2 C 18,3 C 18,0 C 56 % 1002,2 hPa 0,0 l/m 0,53 h 0,00 h 585 W/m 24,6 km/h (4 Bft) 96,80 %
30.04.2020 14:00 16,0 C 17,2 C 17,4 C 57 % 1001,9 hPa 0,0 l/m 0,13 h 0,00 h 411 W/m 21,8 km/h (4 Bft) 95,94 %
30.04.2020 15:00 16,2 C 18,3 C 16,7 C 54 % 1000,9 hPa 0,0 l/m 0,97 h 0,00 h 584 W/m 22,0 km/h (4 Bft) 98,93 %
30.04.2020 16:00 16,6 C 16,0 C 15,4 C 54 % 1000,2 hPa 0,0 l/m 0,23 h 0,20 h 210 W/m 21,5 km/h (4 Bft) 98,94 %
30.04.2020 17:00 11,9 C 8,5 C 8,6 C 81 % 1001,2 hPa 1,4 l/m 0,00 h 0,90 h 49 W/m 17,3 km/h (3 Bft) 94,77 %
30.04.2020 18:00 10,3 C 9,3 C 8,9 C 91 % 1000,3 hPa 0,0 l/m 0,20 h 0,00 h 134 W/m 5,8 km/h (1 Bft) 97,55 %
30.04.2020 19:00 10,8 C 10,0 C 9,1 C 92 % 999,9 hPa 0,0 l/m 0,17 h 0,00 h 61 W/m 8,2 km/h (2 Bft) 96,22 %
30.04.2020 20:00 10,6 C 9,4 C 8,8 C 90 % 1000,0 hPa 0,0 l/m 0,00 h 0,00 h 11 W/m 8,0 km/h (2 Bft) 99,35 %
30.04.2020 21:00 10,3 C 8,9 C 8,4 C 91 % 1000,2 hPa 1,0 l/m 0,00 h 0,33 h 0 W/m 9,6 km/h (2 Bft) 95,59 %
30.04.2020 22:00 10,2 C 8,9 C 8,3 C 93 % 1000,2 hPa 0,0 l/m 0,00 h 0,00 h 0 W/m 5,5 km/h (1 Bft) 96,97 %
30.04.2020 23:00 9,9 C 8,2 C 8,0 C 93 % 1000,3 hPa 2,6 l/m 0,00 h 0,60 h 0 W/m 16,2 km/h (3 Bft) 99,64 %
01.05.2020 00:00 9,0 C 7,6 C 7,2 C 95 % 1000,6 hPa 0,0 l/m 0,00 h 0,00 h 0 W/m 12,2 km/h (2 Bft) 93,57 %
01.05.2020 01:00 8,2 C 6,8 C 6,5 C 95 % 1000,9 hPa 0,0 l/m 0,00 h 0,00 h 0 W/m 10,1 km/h (2 Bft) 96,93 %
01.05.2020 02:00 7,8 C 6,8 C 6,2 C 96 % 1001,0 hPa 0,2 l/m 0,00 h 0,00 h 0 W/m 11,0 km/h (2 Bft) 97,35 %
01.05.2020 03:00 7,9 C 7,1 C 6,6 C 96 % 1000,9 hPa 0,0 l/m 0,00 h 0,00 h 0 W/m 6,4 km/h (2 Bft) 98,57 %
01.05.2020 04:00 8,2 C 7,6 C 6,7 C 96 % 1001,0 hPa 0,0 l/m 0,00 h 0,00 h 0 W/m 10,6 km/h (2 Bft) 97,78 %
01.05.2020 05:00 8,3 C 7,8 C 6,7 C 96 % 1001,0 hPa 0,0 l/m 0,00 h 0,00 h 0 W/m 7,8 km/h (2 Bft) 95,07 %
01.05.2020 06:00 7,9 C 7,3 C 6,6 C 94 % 1000,9 hPa 0,0 l/m 0,03 h 0,00 h 19 W/m 8,5 km/h (2 Bft) 97,63 %
01.05.2020 07:00 7,9 C 7,8 C 6,9 C 92 % 1001,1 hPa 0,0 l/m 0,00 h 0,00 h 56 W/m 15,3 km/h (3 Bft) 97,08 %
01.05.2020 08:00 8,8 C 9,4 C 8,6 C 91 % 1001,2 hPa 0,0 l/m 0,10 h 0,00 h 133 W/m 14,3 km/h (3 Bft) 99,29 %
01.05.2020 09:00 10,5 C 11,9 C 11,7 C 85 % 1001,1 hPa 0,0 l/m 0,43 h 0,00 h 237 W/m 21,8 km/h (4 Bft) 96,24 %
01.05.2020 10:00 12,0 C 13,6 C 14,1 C 78 % 1001,0 hPa 0,0 l/m 0,43 h 0,00 h 363 W/m 26,1 km/h (4 Bft) 97,95 %
01.05.2020 11:00 13,2 C 15,1 C 13,9 C 72 % 1000,8 hPa 0,0 l/m 0,47 h 0,00 h 504 W/m 28,1 km/h (4 Bft) 96,30 %
01.05.2020 12:00 14,1 C 15,8 C 14,5 C 68 % 1000,5 hPa 0,0 l/m 0,43 h 0,00 h 498 W/m 21,2 km/h (4 Bft) 97,44 %
01.05.2020 13:00 14,4 C 15,0 C 14,8 C 65 % 1000,3 hPa 0,0 l/m 0,20 h 0,00 h 329 W/m 22,5 km/h (4 Bft) 99,65 %
01.05.2020 14:00 15,2 C 17,5 C 17,1 C 64 % 1000,0 hPa 0,0 l/m 0,63 h 0,00 h 584 W/m 23,8 km/h (4 Bft) 97,36 %
01.05.2020 15:00 14,8 C 17,0 C 14,8 C 67 % 1000,2 hPa 0,0 l/m 0,70 h 0,00 h 599 W/m 23,1 km/h (4 Bft) 95,17 %
01.05.2020 16:00 15,2 C 15,7 C 14,3 C 68 % 1000,2 hPa 0,0 l/m 0,30 h 0,10 h 352 W/m 19,7 km/h (3 Bft) 97,15 %
01.05.2020 17:00 15,1 C 16,9 C 15,2 C 70 % 1000,4 hPa 0,0 l/m 0,47 h 0,00 h 336 W/m 10,8 km/h (2 Bft) 98,72 %
01.05.2020 18:00 15,5 C 16,2 C 13,6 C 68 % 1000,9 hPa 0,0 l/m 0,93 h 0,00 h 301 W/m 10,0 km/h (2 Bft) 98,54 %
01.05.2020 19:00 13,7 C 10,6 C 10,4 C 74 % 1001,6 hPa 4,0 l/m 0,00 h 0,50 h 21 W/m 8,9 km/h (2 Bft) 96,44 %
01.05.2020 20:00 9,9 C 8,0 C 7,9 C 90 % 1002,0 hPa 0,8 l/m 0,23 h 0,33 h 39 W/m 4,5 km/h (1 Bft) 98,30 %
01.05.2020 21:00 9,2 C 7,8 C 7,5 C 94 % 1002,5 hPa 0,2 l/m 0,00 h 0,27 h 0 W/m 5,9 km/h (2 Bft) 96,94 %
01.05.2020 22:00 9,2 C 7,8 C 7,8 C 95 % 1003,0 hPa 0,2 l/m 0,00 h 0,33 h 0 W/m 2,8 km/h (1 Bft) 97,08 %
01.05.2020 23:00 9,1 C 7,8 C 7,7 C 96 % 1003,6 hPa 0,0 l/m 0,00 h 0,27 h 0 W/m 9,4 km/h (2 Bft) 97,91 %
02.05.2020 00:00 8,9 C 7,8 C 7,4 C 97 % 1003,8 hPa 0,0 l/m 0,00 h 0,00 h 0 W/m 12,3 km/h (3 Bft) 96,43 %
02.05.2020 01:00 8,7 C 7,9 C 7,2 C 96 % 1004,2 hPa 0,0 l/m 0,00 h 0,00 h 0 W/m 8,8 km/h (2 Bft) 95,55 %
02.05.2020 02:00 8,7 C 7,9 C 7,2 C 96 % 1004,5 hPa 0,0 l/m 0,00 h 0,00 h 0 W/m 4,9 km/h (1 Bft) 98,33 %
02.05.2020 03:00 8,6 C 7,8 C 7,2 C 96 % 1004,7 hPa 0,0 l/m 0,00 h 0,00 h 0 W/m 7,2 km/h (2 Bft) 98,55 %
02.05.2020 04:00 8,4 C 7,8 C 6,9 C 96 % 1005,0 hPa 0,0 l/m 0,00 h 0,00 h 0 W/m 8,4 km/h (2 Bft) 96,95 %
02.05.2020 05:00 8,3 C 7,6 C 6,8 C 96 % 1005,3 hPa 0,0 l/m 0,00 h 0,03 h 0 W/m 7,9 km/h (2 Bft) 96,36 %
02.05.2020 06:00 8,5 C 7,9 C 7,2 C 96 % 1005,6 hPa 0,0 l/m 0,00 h 0,00 h 10 W/m 10,4 km/h (2 Bft) 97,09 %
02.05.2020 07:00 8,8 C 8,5 C 7,9 C 96 % 1006,0 hPa 0,0 l/m 0,00 h 0,00 h 44 W/m 12,4 km/h (3 Bft) 97,45 %
02.05.2020 08:00 9,3 C 9,8 C 8,8 C 94 % 1006,5 hPa 0,0 l/m 0,17 h 0,00 h 115 W/m 13,5 km/h (3 Bft) 97,43 %
02.05.2020 09:00 9,8 C 10,0 C 9,3 C 92 % 1007,2 hPa 0,2 l/m 0,03 h 0,10 h 150 W/m 12,1 km/h (2 Bft) 113,36 %
02.05.2020 10:00 10,0 C 9,9 C 9,6 C 91 % 1007,7 hPa 0,2 l/m 0,37 h 0,80 h 292 W/m 11,7 km/h (2 Bft) 99,14 %
02.05.2020 11:00 12,0 C 15,4 C 13,1 C 83 % 1008,0 hPa 0,0 l/m 0,60 h 0,00 h 628 W/m 16,7 km/h (3 Bft) 96,15 %
02.05.2020 12:00 11,8 C 13,2 C 12,2 C 78 % 1008,7 hPa 0,0 l/m 0,33 h 0,00 h 392 W/m 15,9 km/h (3 Bft) 95,96 %
02.05.2020 13:00 13,4 C 17,1 C 16,9 C 74 % 1009,1 hPa 0,0 l/m 0,73 h 0,00 h 691 W/m 14,7 km/h (3 Bft) 99,93 %
02.05.2020 14:00 14,5 C 15,9 C 15,9 C 71 % 1009,7 hPa 0,8 l/m 0,50 h 0,27 h 507 W/m 16,2 km/h (3 Bft) 96,51 %
02.05.2020 15:00 12,6 C 14,8 C 11,5 C 86 % 1010,4 hPa 0,0 l/m 0,80 h 0,13 h 686 W/m 7,1 km/h (2 Bft) 99,72 %
02.05.2020 16:00 12,1 C 12,1 C 10,5 C 87 % 1010,7 hPa 0,4 l/m 0,57 h 0,30 h 324 W/m 7,6 km/h (2 Bft) 97,44 %
02.05.2020 17:00 12,5 C 12,8 C 11,3 C 82 % 1011,2 hPa 0,0 l/m 0,27 h 0,00 h 208 W/m 6,8 km/h (2 Bft) 93,86 %
02.05.2020 18:00 13,1 C 13,9 C 12,0 C 81 % 1011,5 hPa 0,0 l/m 0,60 h 0,00 h 250 W/m 6,4 km/h (2 Bft) 99,74 %
02.05.2020 19:00 13,4 C 12,7 C 11,9 C 76 % 1012,1 hPa 0,0 l/m 0,13 h 0,00 h 73 W/m 10,8 km/h (2 Bft) 97,58 %
02.05.2020 20:00 12,1 C 10,8 C 10,2 C 79 % 1012,8 hPa 0,0 l/m 0,00 h 0,00 h 20 W/m 5,4 km/h (1 Bft) 94,15 %
02.05.2020 21:00 10,8 C 8,5 C 7,9 C 82 % 1013,9 hPa 0,0 l/m 0,00 h 0,00 h 0 W/m 0,0 km/h (0 Bft) 99,29 %
02.05.2020 22:00 9,4 C 7,5 C 6,8 C 85 % 1014,9 hPa 0,0 l/m 0,00 h 0,00 h 0 W/m 0,6 km/h (0 Bft) 94,64 %
02.05.2020 23:00 8,4 C 6,7 C 5,8 C 87 % 1015,3 hPa 0,0 l/m 0,00 h 0,00 h 0 W/m 0,0 km/h (0 Bft) 99,22 %
03.05.2020 00:00 7,6 C 6,0 C 5,1 C 89 % 1015,4 hPa 0,0 l/m 0,00 h 0,00 h 0 W/m 0,0 km/h (0 Bft) 97,48 %
03.05.2020 01:00 6,9 C 5,7 C 4,4 C 90 % 1015,7 hPa 0,0 l/m 0,00 h 0,00 h 0 W/m 0,0 km/h (0 Bft) 95,94 %
03.05.2020 02:00 6,5 C 5,6 C 4,7 C 92 % 1016,1 hPa 0,0 l/m 0,00 h 0,00 h 0 W/m 0,6 km/h (0 Bft) 97,79 %
03.05.2020 03:00 6,1 C 4,5 C 3,7 C 93 % 1016,4 hPa 0,0 l/m 0,00 h 0,00 h 0 W/m 0,0 km/h (0 Bft) 98,93 %
03.05.2020 04:00 5,8 C 5,3 C 4,7 C 94 % 1016,5 hPa 0,0 l/m 0,00 h 0,00 h 0 W/m 0,9 km/h (0 Bft) 98,51 %
03.05.2020 05:00 6,1 C 5,4 C 4,9 C 95 % 1016,9 hPa 0,0 l/m 0,00 h 0,00 h 0 W/m 1,7 km/h (1 Bft) 94,54 %
03.05.2020 06:00 6,1 C 5,7 C 5,1 C 96 % 1017,3 hPa 0,0 l/m 0,00 h 0,00 h 19 W/m 1,4 km/h (1 Bft) 98,56 %
03.05.2020 07:00 6,4 C 7,0 C 6,6 C 96 % 1017,8 hPa 0,0 l/m 0,00 h 0,00 h 68 W/m 2,4 km/h (1 Bft) 98,36 %
03.05.2020 08:00 7,6 C 9,2 C 8,7 C 96 % 1018,3 hPa 0,0 l/m 0,13 h 0,00 h 156 W/m 4,7 km/h (1 Bft) 96,86 %
03.05.2020 09:00 10,0 C 12,7 C 12,8 C 90 % 1018,7 hPa 0,0 l/m 0,80 h 0,00 h 306 W/m 4,3 km/h (1 Bft) 98,01 %
03.05.2020 10:00 12,8 C 15,4 C 15,6 C 78 % 1018,7 hPa 0,0 l/m 1,00 h 0,00 h 398 W/m 9,0 km/h (2 Bft) 98,29 %
03.05.2020 11:00 15,1 C 19,1 C 17,4 C 68 % 1018,8 hPa 0,0 l/m 1,00 h 0,00 h 651 W/m 12,1 km/h (2 Bft) 98,15 %
03.05.2020 12:00 16,5 C 19,4 C 18,0 C 64 % 1018,8 hPa 0,0 l/m 1,00 h 0,00 h 560 W/m 7,8 km/h (2 Bft) 96,11 %
03.05.2020 13:00 16,7 C 18,9 C 18,4 C 62 % 1018,6 hPa 0,0 l/m 1,00 h 0,00 h 535 W/m 9,0 km/h (2 Bft) 97,08 %
03.05.2020 14:00 17,3 C 20,1 C 20,0 C 60 % 1018,4 hPa 0,0 l/m 1,00 h 0,00 h 619 W/m 12,6 km/h (3 Bft) 96,44 %
03.05.2020 15:00 17,2 C 18,1 C 17,6 C 58 % 1018,3 hPa 0,0 l/m 0,53 h 0,00 h 355 W/m 8,1 km/h (2 Bft) 99,00 %
03.05.2020 16:00 17,3 C 18,6 C 17,7 C 58 % 1018,1 hPa 0,0 l/m 0,80 h 0,00 h 373 W/m 6,4 km/h (2 Bft) 98,29 %
03.05.2020 17:00 18,0 C 19,2 C 17,5 C 57 % 1017,7 hPa 0,0 l/m 0,97 h 0,00 h 334 W/m 3,5 km/h (1 Bft) 94,74 %
03.05.2020 18:00 17,6 C 17,0 C 16,1 C 56 % 1017,5 hPa 0,0 l/m 0,43 h 0,00 h 172 W/m 4,5 km/h (1 Bft) 99,71 %
03.05.2020 19:00 16,7 C 15,8 C 15,0 C 58 % 1017,2 hPa 0,0 l/m 0,03 h 0,00 h 79 W/m 1,7 km/h (1 Bft) 95,84 %
03.05.2020 20:00 15,9 C 14,4 C 13,4 C 61 % 1017,0 hPa 0,0 l/m 0,00 h 0,00 h 20 W/m 0,7 km/h (0 Bft) 95,37 %
03.05.2020 21:00 15,0 C 13,6 C 12,7 C 66 % 1017,2 hPa 0,0 l/m 0,00 h 0,00 h 0 W/m 1,8 km/h (1 Bft) 99,29 %
03.05.2020 22:00 14,4 C 13,2 C 12,7 C 69 % 1017,2 hPa 0,0 l/m 0,00 h 0,03 h 0 W/m 2,6 km/h (1 Bft) 97,08 %
03.05.2020 23:00 14,0 C 12,3 C 11,7 C 73 % 1017,2 hPa 0,0 l/m 0,00 h 0,03 h 0 W/m 0,4 km/h (0 Bft) 97,36 %
Min-Datum _ 27.04.20 27.04.20 27.04.20 27.04.20 30.04.20 - - - - 27.04.20 01.05.20
_ Min-Zeit 06:50 06:08 06:02 14:36 19:20 - - - - 00:00 00:02
Minimum _ 4,6 C 3,3 C 2,8 C 38 % 999,6 hPa - - - - 0,0 km/h (0 Bft) 6,67 %
Max-Datum _ 27.04.20 27.04.20 27.04.20 29.04.20 03.05.20 28.04.20 28.04.20 30.04.20 02.05.20 30.04.20 02.05.20
_ Max-Zeit 17:34 12:34 13:42 02:10 11:10 15:18 11:12 16:52 14:10 00:18 09:41
Maximum _ 24,5 C 28,9 C 31,1 C 98 % 1018,9 hPa 6,4 l/m 0,08 h 0,08 h 1114 W/m 48,3 km/h
S-SO (6 Bft)
643,60 %
Durchschnitt _ 12,7 C 12,7 C 11,9 C 80 % 1006,5 hPa #26,0 l/m #39:55 h #13:02 h 284 W/m 8,6 km/h (2 Bft) 97,46 %
© 2020 W. Hausmann